createdAt,value
2018-04-28T00:01:13.172Z,8.60
2018-04-28T00:03:40.643Z,8.60
2018-04-28T00:06:08.125Z,8.70
2018-04-28T00:08:37.197Z,8.70
2018-04-28T00:11:04.680Z,8.60
2018-04-28T00:13:32.139Z,8.70
2018-04-28T00:16:02.324Z,8.70
2018-04-28T00:18:29.820Z,8.70
2018-04-28T00:20:57.277Z,8.70
2018-04-28T00:23:24.768Z,8.70
2018-04-28T00:25:58.953Z,8.60
2018-04-28T00:28:55.850Z,8.60
2018-04-28T00:31:24.816Z,8.60
2018-04-28T00:33:55.804Z,8.50
2018-04-28T00:39:17.557Z,8.50
2018-04-28T00:41:45.001Z,8.40
2018-04-28T00:44:13.220Z,8.40
2018-04-28T00:46:47.080Z,8.40
2018-04-28T00:49:19.092Z,8.30
2018-04-28T00:51:48.384Z,8.30
2018-04-28T00:54:29.324Z,8.30
2018-04-28T00:57:03.160Z,8.30
2018-04-28T00:59:30.628Z,8.20
2018-04-28T01:02:02.557Z,8.30
2018-04-28T01:04:36.612Z,8.20
2018-04-28T01:07:04.106Z,8.20
2018-04-28T01:09:31.557Z,8.30
2018-04-28T01:11:59.015Z,8.20
2018-04-28T01:14:39.338Z,8.30
2018-04-28T01:17:11.360Z,8.30
2018-04-28T01:19:42.968Z,8.20
2018-04-28T01:22:10.466Z,8.20
2018-04-28T01:24:39.874Z,8.20
2018-04-28T01:27:19.244Z,8.20
2018-04-28T01:30:07.556Z,8.10
2018-04-28T01:35:50.787Z,7.90
2018-04-28T01:38:28.940Z,7.90
2018-04-28T01:40:56.417Z,7.90
2018-04-28T01:43:26.783Z,7.80
2018-04-28T01:48:54.205Z,7.70
2018-04-28T01:51:41.061Z,7.70
2018-04-28T01:57:35.977Z,7.70
2018-04-28T02:02:57.820Z,7.70
2018-04-28T02:08:33.265Z,7.70
2018-04-28T02:11:01.565Z,7.70
2018-04-28T02:13:34.565Z,7.70
2018-04-28T02:16:04.715Z,7.60
2018-04-28T02:18:35.059Z,7.60
2018-04-28T02:21:07.016Z,7.50
2018-04-28T02:23:37.963Z,7.50
2018-04-28T02:26:10.107Z,7.50
2018-04-28T02:28:47.121Z,7.40
2018-04-28T02:34:38.732Z,7.40
2018-04-28T02:40:10.145Z,7.40
2018-04-28T02:42:38.376Z,7.30
2018-04-28T02:45:07.653Z,7.30
2018-04-28T02:47:41.353Z,7.30
2018-04-28T02:50:13.343Z,7.30
2018-04-28T02:52:48.411Z,7.30
2018-04-28T02:58:32.895Z,7.30
2018-04-28T03:01:05.829Z,7.30
2018-04-28T03:03:35.064Z,7.30
2018-04-28T03:06:05.143Z,7.30
2018-04-28T03:08:40.352Z,7.30
2018-04-28T03:11:15.665Z,7.40
2018-04-28T03:13:51.981Z,7.30
2018-04-28T03:16:23.099Z,7.40
2018-04-28T03:18:50.577Z,7.40
2018-04-28T03:21:18.811Z,7.40
2018-04-28T03:26:41.620Z,7.50
2018-04-28T03:29:09.849Z,7.50
2018-04-28T03:31:38.857Z,7.50
2018-04-28T03:34:30.978Z,7.50
2018-04-28T03:39:58.778Z,7.60
2018-04-28T03:42:28.061Z,7.60
2018-04-28T03:44:59.024Z,7.60
2018-04-28T03:50:27.009Z,7.60
2018-04-28T03:56:02.222Z,7.70
2018-04-28T03:58:41.357Z,7.70
2018-04-28T04:01:20.657Z,7.70
2018-04-28T04:04:00.619Z,7.70
2018-04-28T04:06:42.977Z,7.70
2018-04-28T04:09:12.312Z,7.80
2018-04-28T04:11:56.249Z,7.70
2018-04-28T04:14:28.241Z,7.70
2018-04-28T04:17:11.180Z,7.80
2018-04-28T04:19:45.497Z,7.70
2018-04-28T04:22:13.169Z,7.70
2018-04-28T04:25:01.945Z,7.70
2018-04-28T04:27:50.084Z,7.60
2018-04-28T04:30:25.456Z,7.60
2018-04-28T04:32:55.383Z,7.50
2018-04-28T04:35:27.320Z,7.50
2018-04-28T04:38:14.459Z,7.40
2018-04-28T04:41:07.581Z,7.40
2018-04-28T04:47:12.337Z,7.40
2018-04-28T04:52:40.751Z,7.30
2018-04-28T04:55:14.800Z,7.30
2018-04-28T04:58:00.902Z,7.30
2018-04-28T05:00:46.777Z,7.30
2018-04-28T05:03:20.948Z,7.30
2018-04-28T05:08:57.644Z,7.30
2018-04-28T05:11:45.496Z,7.30
2018-04-28T05:14:35.269Z,7.30
2018-04-28T05:17:15.927Z,7.30
2018-04-28T05:23:03.908Z,7.30
2018-04-28T05:25:37.238Z,7.30
2018-04-28T05:28:20.304Z,7.40
2018-04-28T05:31:10.205Z,7.40
2018-04-28T05:33:53.436Z,7.40
2018-04-28T05:36:22.618Z,7.50
2018-04-28T05:38:59.349Z,7.60
2018-04-28T05:44:27.308Z,7.60
2018-04-28T05:47:04.381Z,7.70
2018-04-28T05:49:43.743Z,7.70
2018-04-28T05:55:32.357Z,7.90
2018-04-28T06:01:31.144Z,8.10
2018-04-28T06:04:19.426Z,8.30
2018-04-28T06:07:01.552Z,8.60
2018-04-28T06:09:37.520Z,8.50
2018-04-28T06:12:08.479Z,8.70
2018-04-28T06:14:47.653Z,8.90
2018-04-28T06:20:15.343Z,9.30
2018-04-28T06:22:42.764Z,9.40
2018-04-28T06:25:10.247Z,9.60
2018-04-28T06:27:38.474Z,9.90
2018-04-28T06:30:05.945Z,9.80
2018-04-28T06:32:34.261Z,10.10
2018-04-28T06:35:02.514Z,10.30
2018-04-28T06:37:29.996Z,10.20
2018-04-28T06:39:58.225Z,10.60
2018-04-28T06:42:25.720Z,10.50
2018-04-28T06:44:53.940Z,10.80
2018-04-28T06:47:21.443Z,10.80
2018-04-28T06:49:48.978Z,11.00
2018-04-28T06:52:16.400Z,11.10
2018-04-28T06:54:43.877Z,11.20
2018-04-28T06:57:11.364Z,11.30
2018-04-28T06:59:38.816Z,11.40
2018-04-28T07:02:06.304Z,11.40
2018-04-28T07:04:34.660Z,11.60
2018-04-28T07:07:02.072Z,11.50
2018-04-28T07:09:29.521Z,11.70
2018-04-28T07:11:57.030Z,11.80
2018-04-28T07:14:24.468Z,12.00
2018-04-28T07:16:51.936Z,12.20
2018-04-28T07:19:19.428Z,12.40
2018-04-28T07:21:46.891Z,12.60
2018-04-28T07:24:14.429Z,12.90
2018-04-28T07:26:41.872Z,13.10
2018-04-28T07:29:09.403Z,13.30
2018-04-28T07:31:36.797Z,13.50
2018-04-28T07:34:05.048Z,13.90
2018-04-28T07:36:32.504Z,13.90
2018-04-28T07:38:59.980Z,14.10
2018-04-28T07:41:27.452Z,14.30
2018-04-28T07:43:55.698Z,14.60
2018-04-28T07:46:23.180Z,14.60
2018-04-28T07:48:50.637Z,14.70
2018-04-28T07:51:18.904Z,15.00
2018-04-28T07:53:46.393Z,15.00
2018-04-28T07:56:13.860Z,15.20
2018-04-28T07:58:41.360Z,15.50
2018-04-28T08:01:08.864Z,15.70
2018-04-28T08:03:36.390Z,15.90
2018-04-28T08:06:04.641Z,16.40
2018-04-28T08:08:32.128Z,16.40
2018-04-28T08:11:00.366Z,16.60
2018-04-28T08:13:27.850Z,16.60
2018-04-28T08:15:55.320Z,16.70
2018-04-28T08:18:23.607Z,17.00
2018-04-28T08:20:51.833Z,17.00
2018-04-28T08:23:19.312Z,17.00
2018-04-28T08:25:46.772Z,17.10
2018-04-28T08:28:14.263Z,17.30
2018-04-28T08:30:41.736Z,17.50
2018-04-28T08:33:09.204Z,17.60
2018-04-28T08:35:36.705Z,17.70
2018-04-28T08:38:04.173Z,17.80
2018-04-28T08:40:31.669Z,18.00
2018-04-28T08:42:59.140Z,18.20
2018-04-28T08:45:26.700Z,18.40
2018-04-28T08:47:54.145Z,18.60
2018-04-28T08:50:21.653Z,18.90
2018-04-28T08:52:49.467Z,19.20
2018-04-28T08:55:16.948Z,19.60
2018-04-28T08:57:44.420Z,20.00
2018-04-28T09:00:23.739Z,20.20
2018-04-28T09:02:51.240Z,20.50
2018-04-28T09:05:19.477Z,21.00
2018-04-28T09:07:46.932Z,21.00
2018-04-28T09:10:14.420Z,21.00
2018-04-28T09:12:42.670Z,21.20
2018-04-28T09:15:10.124Z,21.20
2018-04-28T09:17:37.602Z,21.40
2018-04-28T09:20:05.080Z,21.70
2018-04-28T09:22:32.525Z,21.90
2018-04-28T09:25:00.009Z,22.20
2018-04-28T09:27:27.462Z,22.40
2018-04-28T09:29:54.940Z,22.50
2018-04-28T09:32:22.501Z,22.60
2018-04-28T09:34:49.997Z,22.60
2018-04-28T09:37:17.473Z,22.60
2018-04-28T09:39:45.701Z,23.10
2018-04-28T09:42:13.196Z,23.10
2018-04-28T09:44:40.648Z,23.30
2018-04-28T09:47:08.124Z,23.40
2018-04-28T09:49:35.608Z,23.60
2018-04-28T09:52:03.085Z,23.80
2018-04-28T09:54:30.600Z,24.20
2018-04-28T09:56:58.869Z,24.40
2018-04-28T09:59:27.208Z,24.30
2018-04-28T10:01:58.613Z,24.30
2018-04-28T10:04:26.108Z,24.30
2018-04-28T10:06:53.567Z,24.30
2018-04-28T10:09:21.076Z,24.20
2018-04-28T10:11:49.333Z,23.20
2018-04-28T10:14:16.804Z,23.20
2018-04-28T10:16:44.267Z,22.90
2018-04-28T10:19:12.517Z,22.30
2018-04-28T10:21:40.035Z,22.30
2018-04-28T10:24:07.687Z,22.10
2018-04-28T10:26:35.911Z,22.20
2018-04-28T10:29:03.400Z,22.20
2018-04-28T10:31:31.621Z,22.00
2018-04-28T10:33:59.080Z,22.00
2018-04-28T10:36:26.561Z,21.60
2018-04-28T10:38:54.041Z,21.60
2018-04-28T10:41:22.296Z,22.00
2018-04-28T10:43:49.781Z,21.90
2018-04-28T10:46:18.005Z,21.50
2018-04-28T10:48:45.484Z,21.50
2018-04-28T10:51:12.940Z,21.40
2018-04-28T10:53:40.456Z,21.10
2018-04-28T10:56:07.911Z,20.90
2018-04-28T10:58:35.367Z,21.10
2018-04-28T11:01:02.862Z,21.30
2018-04-28T11:03:30.356Z,21.80
2018-04-28T11:05:58.597Z,23.00
2018-04-28T11:08:26.088Z,23.00
2018-04-28T11:10:54.341Z,23.10
2018-04-28T11:13:21.877Z,23.10
2018-04-28T11:15:50.075Z,22.50
2018-04-28T11:18:17.554Z,22.40
2018-04-28T11:20:45.037Z,22.00
2018-04-28T11:23:12.508Z,21.60
2018-04-28T11:25:39.987Z,21.20
2018-04-28T11:28:07.469Z,20.90
2018-04-28T11:30:35.699Z,20.30
2018-04-28T11:33:03.226Z,20.20
2018-04-28T11:35:30.671Z,20.00
2018-04-28T11:37:58.938Z,19.70
2018-04-28T11:40:26.388Z,19.70
2018-04-28T11:42:53.880Z,19.70
2018-04-28T11:45:21.332Z,19.60
2018-04-28T11:47:48.817Z,19.50
2018-04-28T11:50:16.270Z,19.40
2018-04-28T11:52:43.752Z,19.20
2018-04-28T11:55:11.269Z,19.10
2018-04-28T11:57:38.748Z,19.00
2018-04-28T12:00:06.265Z,18.90
2018-04-28T12:02:34.502Z,18.60
2018-04-28T12:05:02.748Z,18.60
2018-04-28T12:07:30.201Z,18.60
2018-04-28T12:09:57.708Z,18.70
2018-04-28T12:12:25.172Z,18.70
2018-04-28T12:14:52.685Z,18.70
2018-04-28T12:17:20.150Z,18.60
2018-04-28T12:19:47.625Z,18.50
2018-04-28T12:22:15.084Z,18.40
2018-04-28T12:24:42.572Z,18.40
2018-04-28T12:27:10.789Z,18.20
2018-04-28T12:29:38.251Z,18.20
2018-04-28T12:32:05.736Z,18.20
2018-04-28T12:34:33.193Z,18.10
2018-04-28T12:37:00.674Z,18.00
2018-04-28T12:39:28.898Z,17.80
2018-04-28T12:41:56.403Z,17.80
2018-04-28T12:44:24.632Z,17.90
2018-04-28T12:46:52.089Z,17.90
2018-04-28T12:49:19.577Z,18.20
2018-04-28T12:51:47.056Z,19.00
2018-04-28T12:54:15.284Z,20.40
2018-04-28T12:56:42.785Z,20.40
2018-04-28T12:59:11.007Z,21.40
2018-04-28T13:01:39.369Z,21.50
2018-04-28T13:04:06.812Z,21.50
2018-04-28T13:06:34.280Z,21.60
2018-04-28T13:09:01.762Z,21.50
2018-04-28T13:11:29.221Z,21.30
2018-04-28T13:13:56.713Z,21.10
2018-04-28T13:16:24.953Z,20.60
2018-04-28T13:18:52.440Z,20.60
2018-04-28T13:21:20.668Z,20.20
2018-04-28T13:23:48.152Z,20.20
2018-04-28T13:26:15.600Z,20.10
2018-04-28T13:28:43.057Z,20.10
2018-04-28T13:31:10.543Z,20.40
2018-04-28T13:33:37.987Z,20.70
2018-04-28T13:36:05.459Z,20.90
2018-04-28T13:38:33.685Z,20.90
2018-04-28T13:41:01.225Z,20.90
2018-04-28T13:43:28.608Z,20.80
2018-04-28T13:45:56.089Z,20.70
2018-04-28T13:48:23.543Z,20.50
2018-04-28T13:50:51.024Z,20.40
2018-04-28T13:53:19.282Z,20.10
2018-04-28T13:55:46.736Z,20.10
2018-04-28T13:58:14.212Z,20.10
2018-04-28T14:00:42.436Z,20.00
2018-04-28T14:03:09.924Z,20.00
2018-04-28T14:05:37.376Z,20.00
2018-04-28T14:08:04.836Z,19.90
2018-04-28T14:10:32.301Z,19.90
2018-04-28T14:12:59.760Z,19.80
2018-04-28T14:15:27.240Z,19.70
2018-04-28T14:17:55.460Z,19.50
2018-04-28T14:20:22.927Z,19.40
2018-04-28T14:22:50.385Z,19.40
2018-04-28T14:25:17.861Z,19.40
2018-04-28T14:27:45.344Z,19.40
2018-04-28T14:30:12.831Z,19.50
2018-04-28T14:32:40.307Z,19.50
2018-04-28T14:35:07.843Z,19.60
2018-04-28T14:37:35.347Z,19.60
2018-04-28T14:40:02.834Z,19.60
2018-04-28T14:42:38.757Z,19.70
2018-04-28T14:45:06.227Z,19.70
2018-04-28T14:47:33.709Z,19.60
2018-04-28T14:50:01.185Z,19.50
2018-04-28T14:52:28.669Z,19.30
2018-04-28T14:54:56.134Z,19.20
2018-04-28T14:57:23.621Z,19.10
2018-04-28T14:59:51.068Z,18.90
2018-04-28T15:02:18.532Z,18.80
2018-04-28T15:04:46.783Z,18.60
2018-04-28T15:07:14.253Z,18.60
2018-04-28T15:09:41.774Z,18.60
2018-04-28T15:12:09.228Z,18.50
2018-04-28T15:14:36.706Z,18.50
2018-04-28T15:17:04.182Z,18.40
2018-04-28T15:19:31.683Z,18.40
2018-04-28T15:21:59.137Z,18.40
2018-04-28T15:24:26.612Z,18.40
2018-04-28T15:26:54.112Z,18.40
2018-04-28T15:29:21.563Z,18.40
2018-04-28T15:31:49.064Z,18.40
2018-04-28T15:34:16.520Z,18.40
2018-04-28T15:36:44.006Z,18.40
2018-04-28T15:39:11.464Z,18.40
2018-04-28T15:41:39.008Z,18.40
2018-04-28T15:44:06.476Z,18.40
2018-04-28T15:46:33.960Z,18.40
2018-04-28T15:49:01.410Z,18.40
2018-04-28T15:51:28.888Z,18.30
2018-04-28T15:53:56.384Z,18.30
2018-04-28T15:56:23.844Z,18.20
2018-04-28T15:58:51.330Z,18.10
2018-04-28T16:01:18.780Z,18.10
2018-04-28T16:03:46.258Z,18.10
2018-04-28T16:06:14.543Z,18.10
2018-04-28T16:08:41.999Z,18.00
2018-04-28T16:11:09.479Z,18.10
2018-04-28T16:13:37.706Z,18.00
2018-04-28T16:16:05.208Z,18.00
2018-04-28T16:18:33.428Z,17.90
2018-04-28T16:21:00.903Z,17.90
2018-04-28T16:23:28.384Z,17.80
2018-04-28T16:25:55.845Z,17.80
2018-04-28T16:28:23.301Z,17.70
2018-04-28T16:30:50.780Z,17.70
2018-04-28T16:33:19.034Z,17.60
2018-04-28T16:35:46.513Z,17.60
2018-04-28T16:38:13.973Z,17.60
2018-04-28T16:40:41.479Z,17.50
2018-04-28T16:43:08.941Z,17.50
2018-04-28T16:45:36.422Z,17.40
2018-04-28T16:48:03.915Z,17.40
2018-04-28T16:50:31.388Z,17.30
2018-04-28T16:52:58.855Z,17.20
2018-04-28T16:55:26.353Z,17.20
2018-04-28T16:57:53.828Z,17.10
2018-04-28T17:00:22.055Z,17.00
2018-04-28T17:02:49.536Z,17.00
2018-04-28T17:05:17.000Z,17.00
2018-04-28T17:07:45.267Z,16.80
2018-04-28T17:10:12.736Z,16.90
2018-04-28T17:12:40.216Z,16.80
2018-04-28T17:15:07.679Z,16.80
2018-04-28T17:17:46.982Z,16.70
2018-04-28T17:20:14.428Z,16.70
2018-04-28T17:22:41.921Z,16.70
2018-04-28T17:25:09.380Z,16.60
2018-04-28T17:27:36.832Z,16.60
2018-04-28T17:30:04.331Z,16.60
2018-04-28T17:32:31.840Z,16.50
2018-04-28T17:35:00.068Z,16.50
2018-04-28T17:37:27.581Z,16.50
2018-04-28T17:39:55.045Z,16.40
2018-04-28T17:42:22.531Z,16.40
2018-04-28T17:44:49.988Z,16.40
2018-04-28T17:47:17.473Z,16.40
2018-04-28T17:49:44.976Z,16.40
2018-04-28T17:52:12.468Z,16.40
2018-04-28T17:54:39.956Z,16.30
2018-04-28T17:57:07.408Z,16.30
2018-04-28T17:59:34.913Z,16.20
2018-04-28T18:02:02.400Z,16.20
2018-04-28T18:04:29.878Z,16.10
2018-04-28T18:06:57.363Z,16.00
2018-04-28T18:09:25.588Z,15.90
2018-04-28T18:11:53.064Z,15.90
2018-04-28T18:14:20.558Z,15.80
2018-04-28T18:16:48.051Z,15.80
2018-04-28T18:19:15.500Z,15.70
2018-04-28T18:21:42.976Z,15.60
2018-04-28T18:24:10.445Z,15.60
2018-04-28T18:26:38.705Z,15.40
2018-04-28T18:29:06.164Z,15.40
2018-04-28T18:31:33.652Z,15.40
2018-04-28T18:34:01.113Z,15.30
2018-04-28T18:36:28.593Z,15.30
2018-04-28T18:38:56.076Z,15.20
2018-04-28T18:41:23.533Z,15.20
2018-04-28T18:43:51.017Z,15.10
2018-04-28T18:46:18.475Z,15.00
2018-04-28T18:48:45.976Z,14.90
2018-04-28T18:51:14.224Z,14.80
2018-04-28T18:53:41.689Z,14.80
2018-04-28T18:56:09.177Z,14.70
2018-04-28T18:58:37.444Z,14.60
2018-04-28T19:01:05.671Z,14.50
2018-04-28T19:03:33.144Z,14.50
2018-04-28T19:06:00.614Z,14.40
2018-04-28T19:08:28.068Z,14.40
2018-04-28T19:10:55.552Z,14.30
2018-04-28T19:13:23.800Z,14.30
2018-04-28T19:15:51.261Z,14.20
2018-04-28T19:18:18.760Z,14.20
2018-04-28T19:20:46.210Z,14.20
2018-04-28T19:23:13.664Z,14.20
2018-04-28T19:25:41.184Z,14.10
2018-04-28T19:28:08.647Z,14.10
2018-04-28T19:30:36.112Z,14.10
2018-04-28T19:33:04.360Z,14.10
2018-04-28T19:35:31.812Z,14.00
2018-04-28T19:37:59.276Z,14.00
2018-04-28T19:40:26.757Z,14.00
2018-04-28T19:42:54.213Z,14.00
2018-04-28T19:45:22.473Z,13.90
2018-04-28T19:47:49.920Z,13.90
2018-04-28T19:50:17.381Z,13.90
2018-04-28T19:52:45.661Z,13.80
2018-04-28T19:55:13.127Z,13.80
2018-04-28T19:57:40.631Z,13.80
2018-04-28T20:00:08.100Z,13.80
2018-04-28T20:02:35.601Z,13.70
2018-04-28T20:05:03.056Z,13.70
2018-04-28T20:07:30.541Z,13.70
2018-04-28T20:09:58.072Z,13.60
2018-04-28T20:12:25.476Z,13.60
2018-04-28T20:14:52.977Z,13.60
2018-04-28T20:17:20.436Z,13.60
2018-04-28T20:19:47.912Z,13.50
2018-04-28T20:22:27.144Z,13.50
2018-04-28T20:28:00.005Z,13.40
2018-04-28T20:30:27.493Z,13.40
2018-04-28T20:32:54.945Z,13.40
2018-04-28T20:35:22.404Z,13.30
2018-04-28T20:37:49.880Z,13.30
2018-04-28T20:40:17.368Z,13.20
2018-04-28T20:42:44.852Z,13.20
2018-04-28T20:45:12.310Z,13.20
2018-04-28T20:47:39.801Z,13.20
2018-04-28T20:50:08.044Z,13.10
2018-04-28T20:52:35.504Z,13.10
2018-04-28T20:55:02.998Z,13.00
2018-04-28T20:57:31.212Z,13.00
2018-04-28T20:59:58.764Z,13.00
2018-04-28T21:02:26.305Z,12.90
2018-04-28T21:04:54.553Z,12.80
2018-04-28T21:07:22.796Z,12.80
2018-04-28T21:09:50.265Z,12.80
2018-04-28T21:12:17.747Z,12.70
2018-04-28T21:14:45.972Z,12.70
2018-04-28T21:17:13.478Z,12.70
2018-04-28T21:19:40.934Z,12.70
2018-04-28T21:22:09.155Z,12.60
2018-04-28T21:24:36.655Z,12.60
2018-04-28T21:27:04.080Z,12.60
2018-04-28T21:29:31.556Z,12.50
2018-04-28T21:31:59.017Z,12.50
2018-04-28T21:34:26.503Z,12.50
2018-04-28T21:36:54.707Z,12.40
2018-04-28T21:39:22.196Z,12.40
2018-04-28T21:41:49.664Z,12.40
2018-04-28T21:44:17.113Z,12.40
2018-04-28T21:46:44.600Z,12.40
2018-04-28T21:49:12.058Z,12.40
2018-04-28T21:51:40.300Z,12.30
2018-04-28T21:54:07.768Z,12.30
2018-04-28T21:56:35.256Z,12.30
2018-04-28T21:59:02.744Z,12.30
2018-04-28T22:01:30.204Z,12.30
2018-04-28T22:03:57.672Z,12.30
2018-04-28T22:06:25.144Z,12.30
2018-04-28T22:08:52.601Z,12.30
2018-04-28T22:11:20.090Z,12.30
2018-04-28T22:13:48.319Z,12.30
2018-04-28T22:16:16.596Z,12.20
2018-04-28T22:18:44.089Z,12.20
2018-04-28T22:21:11.564Z,12.20
2018-04-28T22:23:39.910Z,12.20
2018-04-28T22:26:07.280Z,12.20
2018-04-28T22:28:34.736Z,12.20
2018-04-28T22:31:02.218Z,12.20
2018-04-28T22:33:30.443Z,12.20
2018-04-28T22:35:57.940Z,12.10
2018-04-28T22:38:26.194Z,12.20
2018-04-28T22:40:53.758Z,12.20
2018-04-28T22:43:21.279Z,12.10
2018-04-28T22:45:48.756Z,12.10
2018-04-28T22:48:16.223Z,12.10
2018-04-28T22:50:43.674Z,12.10
2018-04-28T22:53:11.121Z,12.10
2018-04-28T22:55:38.601Z,12.10
2018-04-28T22:58:06.100Z,12.10
2018-04-28T23:00:42.503Z,12.10
2018-04-28T23:03:09.961Z,12.10
2018-04-28T23:05:37.438Z,12.10
2018-04-28T23:08:04.933Z,12.00
2018-04-28T23:10:32.388Z,12.00
2018-04-28T23:12:59.888Z,12.10
2018-04-28T23:15:27.340Z,12.00
2018-04-28T23:17:54.819Z,12.00
2018-04-28T23:20:22.305Z,12.00
2018-04-28T23:22:49.799Z,12.00
2018-04-28T23:25:17.260Z,12.00
2018-04-28T23:27:44.740Z,12.00
2018-04-28T23:30:12.256Z,12.00
2018-04-28T23:32:39.707Z,12.00
2018-04-28T23:35:07.212Z,11.90
2018-04-28T23:37:34.698Z,11.90
2018-04-28T23:40:02.959Z,11.90
2018-04-28T23:42:30.465Z,11.90
2018-04-28T23:44:57.945Z,11.90
2018-04-28T23:47:25.459Z,11.80
2018-04-28T23:49:53.676Z,11.80
2018-04-28T23:52:21.156Z,11.80
2018-04-28T23:54:48.615Z,11.80
2018-04-28T23:57:16.892Z,11.80
2018-04-28T23:59:44.355Z,11.80
